Aviation Digital Data Service (ADDS)

Output produced by METARs form (0123 UTC 16 January 2019)
found at http://www.aviationweather.gov/metar/data/
 
ZBHH 160100Z VRB01MPS 6000 NSC M19/M26 Q1027 NOSIG
TAF ZBHH 151900Z 1600/1624 23004MPS CAVOK TXM08/07Z TNM26/23Z
       
ZGGG 160100Z 02006MPS 9999 BKN040 13/06 Q1024 NOSIG
TAF ZGGG 152101Z 1600/1624 36006MPS 9000 BKN040 TX17/1607Z TN12/1622Z
       
ZGSZ 160100Z 02007MPS 9999 OVC043 15/09 Q1022 NOSIG
TAF ZGSZ 151908Z 1600/1624 01005MPS 6000 BKN030 TX18/1607Z TN13/1622Z
       
ZBTJ 160100Z 26004MPS CAVOK M05/M21 Q1031 NOSIG
TAF ZBTJ 151926Z 1600/1624 25005MPS CAVOK TX02/1607Z TNM08/23Z
       
ZBAA 160100Z VRB01MPS CAVOK M07/M20 Q1030 NOSIG
TAF ZBAA 152120Z 1600/1624 28004MPS CAVOK TX03/1607Z TNM11/21Z
       
ZSFZ 160100Z 04011MPS 9000 SCT017 OVC036 10/05 Q1026 NOSIG
TAF ZSFZ 151922Z 1600/1624 04009MPS 6000 BKN020 TX14/1606Z TN11/1621Z
       
ZYCC 160100Z 24007MPS 9999 BKN030 M11/M23 Q1018 NOSIG
TAF ZYCC 151904Z 1600/1624 21005G12MPS CAVOK TXM06/06Z TNM19/22Z
       
ZWWW 160100Z 18002MPS 140V220 CAVOK M13/M15 Q1023 NOSIG
TAF ZWWW 152106Z 1600/1624 22002MPS 1200 -SN BR BKN011 TXM14/06Z TNM18/23Z 
     TEMPO 1600/1604 0600 -SN FZFG BKN004 
     BECMG 1604/1605 02002MPS 1600 -SN BR
       
ZSAM 160100Z 07005MPS 9999 OVC036 14/11 Q1023 NOSIG
TAF ZSAM 151912Z 1600/1624 05006G11MPS 8000 BKN020 TX17/1606Z TN14/1621Z 
     BECMG 1606/1607 4000 -RA 
     PROB40 
     TEMPO 1606/1612 RA 
     BECMG 1611/1612 8000 NSW
       
ZSSS 160100Z 36005MPS 9999 BKN020 02/M02 Q1032 NOSIG
TAF ZSSS 151919Z 1600/1624 35006MPS 6000 BKN020 TX05/1606Z TN00/1621Z
       
ZGHA 160100Z 31004MPS 1400 R36L/1600D R36R/P2000 -SN BR BKN003 OVC030 00/00 Q1032 RESN BECMG TL0200 1700
TAF AMD ZGHA 160030Z 1600/1624 34004MPS 1000 -SN BR BKN003 OVC030 TX02/1606Z
TNM01/23Z 
     BECMG 1603/1604 1700 SCT003 BKN005 OVC040 
     BECMG 1613/1614 3200 SCT005 BKN011 OVC050
       
ZUCK 160100Z 18002MPS 5000 BR SCT015 06/04 Q1027 NOSIG
TAF ZUCK 151908Z 1600/1624 17002MPS 3500 BR SCT030 TX10/1608Z TN06/1622Z
       
ZWSH 160100Z VRB01MPS 7000 BKN040 M06/M11 Q1020 NOSIG
TAF ZWSH 152108Z 1600/1624 32004MPS 6000 BKN040 TXM03/09Z TNM10/00Z 
     BECMG 1604/1605 11004MPS 
     BECMG 1614/1615 32004MPS
       
ZGKL 160100Z VRB01MPS 1800 BR SCT016 OVC033 05/04 Q1028 BECMG FM0300 3200
TAF ZGKL 151914Z 1600/1624 05004MPS 6000 SCT023 OVC040 TX09/1608Z TN06/1622Z
       
ZSNB 160100Z 02002MPS 340V060 9999 BKN026 04/M00 Q1030 NOSIG
TAF ZSNB 151929Z 1600/1624 35004MPS 3000 -SHRA BR FEW006 BKN020 TX05/1606Z
TN01/1621Z
       
ZSQD 160100Z 30002MPS 250V340 CAVOK M04/M14 Q1032 NOSIG
TAF ZSQD 151908Z 1600/1624 35005MPS CAVOK TX01/1606Z TNM10/21Z 
     BECMG 1607/1608 20003MPS
       
ZSNJ 160100Z 07002MPS 8000 NSC 00/M03 Q1033 NOSIG
TAF ZSNJ 151902Z 1600/1624 02003MPS 3000 HZ NSC TX04/1606Z TNM03/22Z
       
ZSOF 160100Z 32002MPS CAVOK M02/M10 Q1033 NOSIG
TAF ZSOF 151901Z 1600/1624 01003MPS 5000 HZ NSC TX04/1607Z TNM03/23Z
       
ZJHK 160100Z 03006MPS 2500 -RA BR BKN008 OVC020 17/17 Q1020 BECMG TL0240 3000 BR
TAF ZJHK 151920Z 1600/1624 03004G11MPS 6000 SCT010 BKN030 TX21/1606Z TN16/1621Z 
     TEMPO 1600/1606 2000 -RA BR BKN006 BKN020
       
ZJSY 160100Z VRB03MPS CAVOK 25/17 Q1017 BECMG 09005MPS
TAF ZJSY 151906Z 1600/1624 09004MPS 9999 FEW020 SCT050 TX30/1606Z TN20/1621Z
       
ZSPD 160100Z 33005MPS CAVOK 04/M01 Q1031 NOSIG
TAF ZSPD 152113Z 1600/1624 36008G13MPS 6000 BKN016 TX05/1605Z TN00/1621Z
       
ZUUU 160100Z 22001MPS 3000 BR NSC 02/02 Q1027 NOSIG
TAF ZUUU 152001Z 1600/1624 20003MPS 5000 BR SCT050 TX12/1607Z TN02/1623Z
       
ZYHB 160100Z 22005MPS CAVOK M14/M21 Q1015 BECMG TL0230 28004MPS
TAF ZYHB 151918Z 1600/1624 26006MPS 6000 SCT030 TXM12/06Z TNM22/22Z 
     BECMG 1603/1604 32004MPS
       
ZYTX 160100Z 18002MPS 140V210 8000 NSC M07/M18 Q1024 NOSIG
TAF ZYTX 151908Z 1600/1624 22004MPS CAVOK TX00/1606Z TNM16/23Z
       
ZHHH 160100Z VRB01MPS CAVOK M00/M08 Q1032 NOSIG
TAF ZHHH 151905Z 1600/1624 04004MPS 3000 BR NSC TX05/1607Z TNM01/22Z
       
ZPPP 160100Z 04004MPS 7000 SCT006 OVC036 02/01 Q1025 NOSIG
TAF ZPPP 151913Z 1600/1624 04004MPS 6000 SCT003 BKN026 TX12/1608Z TN04/1623Z 
     BECMG 1603/1604 22005MPS
       
ZBYN 160100Z VRB01MPS CAVOK M10/M22 Q1027 NOSIG
TAF ZBYN 151905Z 1600/1624 34003MPS 5000 HZ NSC TX00/1607Z TNM16/22Z
       
ZGNN 160100Z 36004MPS 9999 FEW011 OVC023 10/07 Q1025 NOSIG
TAF ZGNN 151911Z 1600/1624 01003MPS 7000 SCT015 BKN033 TX12/1607Z TN08/1622Z
       
ZLXY 160100Z 06004MPS CAVOK M04/M18 Q1029 NOSIG
TAF ZLXY 151909Z 1600/1624 06003MPS 4000 HZ NSC TX04/1606Z TNM09/23Z
       
ZSHC 160100Z 36003MPS 9999 BKN020 04/M00 Q1032 NOSIG
TAF ZSHC 151919Z 1600/1624 02004MPS 3000 BR BKN020 TX04/1606Z TNM01/21Z 
     TEMPO 1605/1611 2500 -SNRA BR
       
ZHCC 160100Z 20002MPS 150V230 CAVOK M04/M14 Q1032 NOSIG
TAF ZHCC 151905Z 1600/1624 18003MPS 6000 NSC TX04/1607Z TNM06/22Z
       
ZBSJ 160100Z 21002MPS 190V280 3000 HZ NSC M08/M19 Q1030 BECMG TL0200 2800 HZ
TAF ZBSJ 151906Z 1600/1624 18004MPS 6000 NSC TX02/1606Z TNM09/21Z
       
ZLLL 160100Z 36002MPS CAVOK M17/M19 Q1020 NOSIG
TAF ZLLL 151917Z 1600/1624 18003MPS 6000 NSC TXM01/08Z TNM18/23Z
       
ZYTL 160100Z 27006G12MPS CAVOK M01/M10 Q1027 NOSIG
TAF AMD ZYTL 152335Z 1600/1624 27005G10MPS CAVOK TX00/1606Z TNM04/21Z